Relevés horaires Bouveret (Suisse)


Relevés horaires à Bouveret - Vendredi 27 Févr. 2015
Heure UTC1 Température [°C] Vent [km/h] Hum. [%] Pres.4 [hPa] Visi. [Km] Nébu. [octa] Préc.5 [mm] Cond.
2m. Res. Ros. Dir.2 Vit. Moy. Raf.3
23:00 4.7 0.2 0.4 O 24.1 24.1 33.3 74 1022.6(0.4/3h) -- -- -- --
22:00 4.7 0.4 1.0 O 22.2 25.9 29.6 77 1022.3(0.4/3h) -- -- -- --
21:00 4.6 0.3 1.7 O 22.2 24.1 33.3 81 1022.3(0.8/3h) -- -- -- --
20:00 4.4 -0.2 2.1 O 24.1 24.1 33.3 85 1022.2(1.3/3h) -- -- -- --
19:00 4.9 1.1 2.1 ONO 18.5 20.4 25.9 82 1021.8(2.0/3h) -- -- -- --
18:00 5.0 1.8 2.1 O 14.8 14.8 18.5 81 1021.4(2.3/3h) -- -- -- --
17:00 4.9 4.9 2.8 N 3.7 5.6 7.4 86 1020.8(2.3/3h) -- -- -- --
16:00 5.0 3.9 2.6 ONO 5.6 7.4 9.3 84 1019.7(2.0/3h) -- -- -- --
15:00 4.8 3.1 2.8 O 7.4 7.4 11.1 87 1019(1.5/3h) -- -- -- --
14:00 4.3 4.3 3.0 SE 3.7 5.6 11.1 91 1018.5(1.5/3h) -- -- -- --
13:00 3.3 3.3 1.8 ONO 3.7 7.4 9.3 90 1017.9(2.1/3h) -- -- -- --
12:00 2.5 2.5 1.6 NO 3.7 14.8 20.4 94 1017.9(2.8/3h) -- -- -- --
11:00 2.0 0.4 1.2 ONO 5.6 5.6 9.3 94 1017.3(3.1/3h) -- -- -- --
10:00 2.1 2.1 1.2 O 1.9 3.7 5.6 94 1015.9(2.6/3h) -- -- -- --
09:00 1.9 1.9 1.1 SSO 1.9 14.8 20.4 94 1015(2.2/3h) -- -- -- --
08:00 2.8 -0.2 1.3 ONO 11.1 13.0 16.7 90 1013.9(1.6/3h) -- -- -- --
07:00 4.2 1.5 1.0 NO 11.1 14.8 20.4 80 1012.9(0.8/3h) -- -- -- --
06:00 5.7 4.7 -0.5 ONO 5.6 13.0 20.4 64 1012.1(0.1/3h) -- -- -- --
05:00 5.9 3.9 -2.1 O 9.3 9.3 14.8 56 1011.7(-1.1/3h) -- -- -- --
04:00 5.7 5.7 -2.2 O 1.9 11.1 18.5 57 1011.8(-1.8/3h) -- -- -- --
03:00 6.0 4.5 -3.9 O 7.4 13.0 20.4 49 1012.1(-2.6/3h) -- -- -- --
02:00 5.2 2.7 -1.0 O 11.1 13.0 20.4 64 1013(-2.3/3h) -- -- -- --
01:00 4.6 4.6 0.1 ENE 1.9 5.6 7.4 73 1013.8(-2.2/3h) -- -- -- --
00:00 4.8 4.8 -1.4 E 3.7 5.6 9.3 64 1015.1(-1.4/3h) -- -- -- --

1 Coordinated Universal Time. Actuellement il est 11:00 locale et 09:00 UTC.

2 Le vent souffle depuis la direction indiquée vers la direction oposée.

3 Les rafales max. sont disponible 40 min après l'heure du relevé.

4 Pour les stations d'altitude (plus de 600m) le géopotentiel du niveau le plus proche de la pression obligatoire est indiqué.

5 Les stations disposant d'un diffuseur peuvent indiquer "trace". Cela signifie que des précipitations ont touchés le sol mais que la quantité est inférieure à 0.1 mm.

Copyright

Les données affichées sur cette page sont la propriété exclusive de Météo Suisse.

Récapitulatif de la journée
Température [°C] Vent [km/h] Ensoleillement4 [h] Precipitations totale5 [mm] Pression [Hpa]
Min1 Max.2 Moy.3 Max. Min Max.
4.0 5.8 12.7 33.3 0 h 0 min 0 1011.7 1022.6

1 Température minimale relevée entre 18:00 UTC la veille et 18:00 UTC le jour donné.

2 Température maximale relevée entre 06:00 UTC le jour donné et 06:00 UTC le lendemain.

3 Vent moyen de la journée basé sur les relevés horaires.

4 Ensoleillement en heures relevé entre 06:00 UTC la veille et 06:00 UTC le jour donné.

5 Précipitations totales tombées entre 06:00 UTC la jour donné et 06:00 UTC le lendemain.

Graphiques horaires